createdAt,value
2018-05-02T00:02:19.634Z,5.73
2018-05-02T00:05:23.789Z,5.67
2018-05-02T00:08:27.105Z,5.64
2018-05-02T00:11:31.419Z,5.62
2018-05-02T00:14:34.725Z,5.55
2018-05-02T00:17:38.122Z,5.51
2018-05-02T00:20:41.535Z,5.48
2018-05-02T00:23:46.464Z,5.44
2018-05-02T00:26:49.812Z,5.40
2018-05-02T00:29:53.157Z,5.36
2018-05-02T00:32:56.558Z,5.36
2018-05-02T00:35:59.879Z,5.44
2018-05-02T00:39:03.968Z,5.46
2018-05-02T00:42:07.365Z,5.42
2018-05-02T00:45:10.752Z,5.32
2018-05-02T00:48:14.172Z,5.32
2018-05-02T00:51:17.494Z,5.30
2018-05-02T00:54:20.815Z,5.27
2018-05-02T00:57:24.162Z,5.25
2018-05-02T01:00:27.481Z,5.24
2018-05-02T01:03:32.192Z,5.22
2018-05-02T01:06:35.590Z,5.17
2018-05-02T01:09:38.975Z,5.11
2018-05-02T01:12:42.385Z,5.06
2018-05-02T01:15:45.697Z,5.03
2018-05-02T01:18:49.114Z,4.99
2018-05-02T01:21:52.373Z,4.96
2018-05-02T01:24:55.740Z,5.05
2018-05-02T01:27:59.081Z,5.09
2018-05-02T01:31:02.480Z,5.05
2018-05-02T01:34:05.808Z,5.06
2018-05-02T01:37:09.147Z,5.04
2018-05-02T01:40:12.474Z,5.08
2018-05-02T01:43:15.798Z,5.08
2018-05-02T01:46:19.135Z,5.09
2018-05-02T01:49:25.352Z,5.06
2018-05-02T01:52:28.742Z,5.04
2018-05-02T01:55:32.050Z,4.98
2018-05-02T01:58:35.375Z,4.94
2018-05-02T02:01:39.460Z,4.89
2018-05-02T02:04:43.582Z,4.85
2018-05-02T02:07:47.788Z,4.82
2018-05-02T02:10:51.097Z,4.78
2018-05-02T02:13:54.426Z,4.74
2018-05-02T02:16:58.596Z,4.68
2018-05-02T02:20:01.918Z,4.60
2018-05-02T02:23:05.235Z,4.57
2018-05-02T02:26:09.327Z,4.52
2018-05-02T02:29:12.664Z,4.46
2018-05-02T02:32:15.988Z,4.43
2018-05-02T02:35:19.295Z,4.42
2018-05-02T02:38:22.629Z,4.41
2018-05-02T02:41:26.718Z,4.33
2018-05-02T02:44:30.049Z,4.27
2018-05-02T02:47:34.150Z,4.27
2018-05-02T02:50:37.461Z,4.27
2018-05-02T02:53:41.553Z,4.26
2018-05-02T02:56:44.957Z,4.21
2018-05-02T02:59:49.187Z,4.23
2018-05-02T03:02:52.564Z,4.20
2018-05-02T03:05:55.864Z,4.19
2018-05-02T03:08:59.256Z,4.19
2018-05-02T03:12:02.665Z,4.16
2018-05-02T03:15:05.986Z,4.14
2018-05-02T03:18:09.307Z,4.14
2018-05-02T03:21:13.433Z,4.15
2018-05-02T03:24:16.770Z,4.15
2018-05-02T03:27:20.189Z,4.20
2018-05-02T03:30:23.506Z,4.26
2018-05-02T03:33:26.872Z,4.24
2018-05-02T03:36:30.188Z,4.22
2018-05-02T03:39:34.280Z,4.21
2018-05-02T03:42:37.697Z,4.20
2018-05-02T03:45:41.000Z,4.19
2018-05-02T03:48:45.096Z,4.20
2018-05-02T03:51:48.449Z,4.22
2018-05-02T03:54:52.542Z,4.32
2018-05-02T03:57:55.905Z,4.41
2018-05-02T04:01:17.038Z,4.61
2018-05-02T04:04:38.267Z,4.79
2018-05-02T04:07:42.993Z,4.85
2018-05-02T04:10:47.816Z,4.90
2018-05-02T04:13:51.162Z,4.91
2018-05-02T04:16:55.233Z,4.92
2018-05-02T04:19:58.570Z,4.98
2018-05-02T04:23:02.645Z,5.05
2018-05-02T04:26:06.097Z,5.06
2018-05-02T04:29:09.447Z,5.06
2018-05-02T04:32:12.850Z,5.13
2018-05-02T04:35:16.237Z,5.21
2018-05-02T04:38:19.564Z,5.26
2018-05-02T04:41:22.937Z,5.39
2018-05-02T04:44:26.357Z,5.52
2018-05-02T04:47:29.659Z,5.62
2018-05-02T04:50:33.029Z,5.70
2018-05-02T04:53:36.495Z,5.88
2018-05-02T04:56:39.876Z,5.93
2018-05-02T04:59:43.977Z,6.04
2018-05-02T05:02:47.368Z,6.10
2018-05-02T05:05:50.669Z,6.13
2018-05-02T05:08:54.050Z,6.18
2018-05-02T05:11:57.346Z,6.30
2018-05-02T05:15:00.738Z,6.40
2018-05-02T05:18:04.132Z,6.45
2018-05-02T05:21:07.445Z,6.62
2018-05-02T05:24:10.833Z,6.71
2018-05-02T05:27:14.128Z,6.75
2018-05-02T05:30:17.467Z,6.74
2018-05-02T05:33:20.789Z,6.82
2018-05-02T05:36:24.143Z,6.91
2018-05-02T05:39:27.470Z,7.08
2018-05-02T05:42:31.536Z,7.33
2018-05-02T05:45:34.937Z,7.58
2018-05-02T05:48:38.270Z,7.55
2018-05-02T05:51:42.350Z,7.69
2018-05-02T05:54:45.682Z,7.79
2018-05-02T05:57:49.063Z,7.94
2018-05-02T06:00:52.472Z,8.18
2018-05-02T06:03:55.749Z,8.34
2018-05-02T06:06:59.057Z,8.38
2018-05-02T06:10:02.456Z,8.60
2018-05-02T06:13:05.768Z,8.87
2018-05-02T06:16:09.077Z,8.92
2018-05-02T06:19:13.155Z,9.05
2018-05-02T06:22:16.457Z,9.35
2018-05-02T06:25:20.589Z,9.62
2018-05-02T06:28:23.918Z,9.64
2018-05-02T06:31:28.365Z,9.70
2018-05-02T06:34:31.672Z,9.79
2018-05-02T06:37:35.017Z,9.67
2018-05-02T06:40:38.330Z,9.81
2018-05-02T06:43:42.432Z,9.62
2018-05-02T06:46:45.724Z,9.77
2018-05-02T06:49:49.057Z,9.72
2018-05-02T06:52:53.119Z,9.71
2018-05-02T06:55:56.424Z,9.75
2018-05-02T06:58:59.877Z,9.98
2018-05-02T07:02:03.203Z,10.05
2018-05-02T07:05:06.677Z,10.09
2018-05-02T07:08:09.998Z,10.49
2018-05-02T07:11:13.374Z,10.46
2018-05-02T07:14:16.710Z,10.70
2018-05-02T07:17:20.123Z,10.99
2018-05-02T07:20:23.506Z,11.03
2018-05-02T07:23:26.819Z,11.10
2018-05-02T07:26:30.229Z,11.29
2018-05-02T07:29:33.623Z,11.35
2018-05-02T07:32:37.025Z,11.54
2018-05-02T07:35:40.301Z,11.56
2018-05-02T07:38:43.703Z,11.53
2018-05-02T07:41:47.093Z,11.51
2018-05-02T07:44:50.437Z,11.64
2018-05-02T07:47:53.806Z,11.82
2018-05-02T07:50:57.213Z,12.07
2018-05-02T07:54:00.560Z,12.09
2018-05-02T07:57:03.928Z,11.79
2018-05-02T08:00:07.318Z,11.95
2018-05-02T08:03:11.428Z,11.93
2018-05-02T08:06:14.829Z,12.24
2018-05-02T08:09:18.220Z,12.37
2018-05-02T08:12:21.526Z,12.49
2018-05-02T08:15:24.917Z,12.44
2018-05-02T08:18:28.269Z,12.61
2018-05-02T08:21:31.618Z,12.68
2018-05-02T08:24:34.958Z,12.79
2018-05-02T08:27:39.126Z,12.92
2018-05-02T08:30:42.535Z,12.85
2018-05-02T08:33:45.942Z,13.06
2018-05-02T08:36:49.328Z,13.19
2018-05-02T08:39:52.717Z,13.32
2018-05-02T08:42:56.035Z,13.44
2018-05-02T08:45:59.375Z,13.36
2018-05-02T08:49:02.729Z,13.38
2018-05-02T08:52:06.116Z,13.57
2018-05-02T08:55:09.522Z,13.91
2018-05-02T08:58:12.926Z,14.09
2018-05-02T09:01:16.261Z,14.16
2018-05-02T09:04:20.349Z,14.01
2018-05-02T09:07:23.659Z,14.17
2018-05-02T09:10:26.991Z,14.28
2018-05-02T09:13:30.341Z,14.13
2018-05-02T09:16:33.746Z,14.50
2018-05-02T09:19:37.084Z,14.58
2018-05-02T09:22:40.439Z,14.85
2018-05-02T09:25:43.898Z,15.08
2018-05-02T09:28:47.181Z,15.33
2018-05-02T09:31:50.503Z,14.94
2018-05-02T09:34:53.837Z,14.87
2018-05-02T09:37:57.159Z,14.86
2018-05-02T09:41:01.243Z,14.99
2018-05-02T09:44:04.597Z,14.74
2018-05-02T09:47:07.909Z,14.71
2018-05-02T09:50:11.293Z,14.95
2018-05-02T09:53:14.689Z,15.43
2018-05-02T09:56:18.035Z,15.70
2018-05-02T09:59:21.490Z,15.60
2018-05-02T10:02:24.809Z,15.88
2018-05-02T10:05:28.154Z,15.65
2018-05-02T10:08:31.463Z,15.53
2018-05-02T10:11:35.636Z,15.77
2018-05-02T10:14:38.955Z,15.60
2018-05-02T10:17:42.297Z,15.68
2018-05-02T10:20:45.662Z,15.42
2018-05-02T10:23:48.979Z,15.60
2018-05-02T10:26:53.182Z,15.93
2018-05-02T10:29:56.635Z,16.19
2018-05-02T10:33:00.014Z,16.13
2018-05-02T10:36:03.344Z,16.11
2018-05-02T10:39:06.769Z,15.21
2018-05-02T10:42:10.174Z,15.55
2018-05-02T10:45:13.509Z,15.73
2018-05-02T10:48:16.840Z,16.47
2018-05-02T10:51:20.245Z,16.80
2018-05-02T10:54:23.573Z,17.02
2018-05-02T10:57:26.976Z,17.22
2018-05-02T11:00:30.354Z,17.38
2018-05-02T11:03:33.669Z,17.12
2018-05-02T11:06:37.001Z,16.81
2018-05-02T11:09:40.338Z,16.88
2018-05-02T11:12:43.646Z,17.18
2018-05-02T11:15:46.983Z,17.55
2018-05-02T11:18:51.166Z,17.74
2018-05-02T11:21:54.502Z,17.89
2018-05-02T11:24:57.878Z,18.08
2018-05-02T11:28:01.188Z,17.65
2018-05-02T11:31:05.284Z,17.55
2018-05-02T11:34:08.624Z,17.43
2018-05-02T11:37:11.939Z,17.54
2018-05-02T11:40:15.293Z,17.52
2018-05-02T11:43:18.679Z,17.67
2018-05-02T11:46:22.105Z,16.99
2018-05-02T11:49:25.422Z,17.46
2018-05-02T11:52:28.733Z,17.22
2018-05-02T11:55:32.171Z,17.00
2018-05-02T11:58:35.485Z,17.10
2018-05-02T12:01:38.867Z,17.77
2018-05-02T12:04:42.197Z,17.82
2018-05-02T12:07:46.385Z,17.31
2018-05-02T12:10:49.800Z,17.02
2018-05-02T12:13:53.894Z,17.15
2018-05-02T12:16:57.222Z,17.50
2018-05-02T12:20:00.588Z,17.73
2018-05-02T12:23:03.904Z,17.46
2018-05-02T12:26:07.329Z,17.75
2018-05-02T12:29:11.429Z,18.00
2018-05-02T12:32:14.805Z,18.27
2018-05-02T12:35:18.284Z,18.31
2018-05-02T12:38:21.559Z,18.63
2018-05-02T12:41:24.911Z,18.63
2018-05-02T12:44:28.305Z,18.78
2018-05-02T12:47:31.702Z,19.14
2018-05-02T12:50:35.107Z,19.20
2018-05-02T12:53:38.428Z,19.07
2018-05-02T12:56:41.754Z,18.57
2018-05-02T12:59:45.154Z,18.38
2018-05-02T13:02:48.472Z,18.33
2018-05-02T13:05:51.794Z,18.49
2018-05-02T13:08:55.203Z,18.85
2018-05-02T13:11:58.651Z,18.93
2018-05-02T13:15:01.999Z,18.67
2018-05-02T13:18:05.393Z,18.46
2018-05-02T13:21:08.722Z,18.48
2018-05-02T13:24:12.045Z,18.87
2018-05-02T13:27:15.389Z,19.02
2018-05-02T13:30:18.737Z,19.48
2018-05-02T13:33:22.095Z,18.98
2018-05-02T13:36:25.528Z,18.84
2018-05-02T13:39:29.062Z,18.63
2018-05-02T13:42:32.381Z,18.55
2018-05-02T13:45:35.724Z,18.58
2018-05-02T13:48:39.797Z,18.57
2018-05-02T13:51:43.132Z,18.38
2018-05-02T13:54:46.498Z,18.47
2018-05-02T13:57:49.914Z,18.22
2018-05-02T14:00:53.318Z,18.17
2018-05-02T14:03:56.657Z,17.86
2018-05-02T14:07:00.009Z,17.79
2018-05-02T14:10:04.113Z,17.79
2018-05-02T14:13:07.473Z,17.99
2018-05-02T14:16:10.796Z,18.00
2018-05-02T14:19:14.114Z,18.01
2018-05-02T14:22:17.449Z,18.19
2018-05-02T14:25:21.549Z,17.92
2018-05-02T14:28:24.904Z,17.69
2018-05-02T14:31:28.245Z,17.79
2018-05-02T14:34:31.636Z,18.03
2018-05-02T14:37:35.077Z,18.01
2018-05-02T14:40:38.429Z,17.89
2018-05-02T14:43:41.836Z,17.90
2018-05-02T14:46:45.161Z,17.90
2018-05-02T14:49:49.331Z,17.74
2018-05-02T14:52:52.662Z,17.65
2018-05-02T14:55:55.973Z,18.08
2018-05-02T14:59:00.164Z,18.25
2018-05-02T15:02:03.521Z,18.62
2018-05-02T15:05:06.850Z,18.47
2018-05-02T15:08:10.331Z,18.19
2018-05-02T15:11:14.475Z,18.41
2018-05-02T15:14:17.802Z,18.94
2018-05-02T15:17:21.897Z,19.80
2018-05-02T15:20:25.233Z,20.59
2018-05-02T15:23:28.630Z,21.22
2018-05-02T15:26:31.980Z,21.38
2018-05-02T15:29:35.300Z,21.54
2018-05-02T15:32:38.660Z,21.82
2018-05-02T15:35:42.068Z,20.18
2018-05-02T15:38:45.476Z,18.21
2018-05-02T15:41:48.878Z,17.01
2018-05-02T15:44:52.294Z,16.45
2018-05-02T15:47:55.805Z,18.14
2018-05-02T15:50:59.131Z,18.96
2018-05-02T15:54:02.453Z,18.39
2018-05-02T15:57:05.865Z,19.47
2018-05-02T16:00:09.195Z,20.56
2018-05-02T16:03:12.767Z,21.83
2018-05-02T16:06:16.104Z,22.10
2018-05-02T16:09:19.471Z,21.39
2018-05-02T16:12:22.883Z,20.06
2018-05-02T16:15:26.292Z,21.24
2018-05-02T16:18:29.609Z,21.24
2018-05-02T16:21:33.700Z,20.65
2018-05-02T16:24:37.787Z,21.61
2018-05-02T16:27:41.252Z,22.27
2018-05-02T16:30:44.562Z,23.82
2018-05-02T16:33:47.878Z,22.68
2018-05-02T16:36:51.305Z,21.20
2018-05-02T16:39:55.637Z,20.19
2018-05-02T16:43:00.477Z,18.18
2018-05-02T16:46:03.883Z,17.68
2018-05-02T16:49:07.208Z,16.78
2018-05-02T16:52:10.540Z,16.44
2018-05-02T16:55:13.858Z,17.74
2018-05-02T16:58:17.206Z,17.17
2018-05-02T17:01:20.622Z,15.82
2018-05-02T17:04:24.021Z,15.03
2018-05-02T17:07:27.290Z,14.83
2018-05-02T17:10:31.466Z,15.22
2018-05-02T17:13:34.783Z,15.40
2018-05-02T17:16:38.278Z,14.92
2018-05-02T17:19:42.402Z,14.76
2018-05-02T17:22:45.727Z,14.65
2018-05-02T17:25:49.841Z,14.65
2018-05-02T17:28:54.015Z,14.74
2018-05-02T17:31:57.349Z,14.68
2018-05-02T17:35:01.440Z,14.48
2018-05-02T17:38:04.826Z,14.24
2018-05-02T17:41:08.148Z,14.00
2018-05-02T17:44:11.470Z,13.78
2018-05-02T17:47:15.645Z,13.61
2018-05-02T17:50:18.975Z,13.38
2018-05-02T17:53:23.083Z,13.31
2018-05-02T17:56:26.411Z,13.23
2018-05-02T17:59:29.749Z,12.97
2018-05-02T18:02:33.207Z,12.86
2018-05-02T18:05:37.401Z,12.66
2018-05-02T18:08:40.791Z,12.55
2018-05-02T18:11:44.117Z,12.53
2018-05-02T18:14:48.229Z,12.44
2018-05-02T18:17:52.321Z,12.42
2018-05-02T18:20:55.654Z,12.26
2018-05-02T18:23:59.822Z,12.15
2018-05-02T18:27:03.231Z,12.04
2018-05-02T18:30:06.626Z,11.96
2018-05-02T18:33:10.086Z,11.88
2018-05-02T18:36:13.434Z,11.82
2018-05-02T18:39:16.740Z,11.81
2018-05-02T18:42:20.074Z,11.73
2018-05-02T18:45:23.423Z,11.76
2018-05-02T18:48:26.828Z,11.57
2018-05-02T18:51:30.235Z,11.50
2018-05-02T18:54:33.556Z,11.40
2018-05-02T18:57:37.650Z,11.38
2018-05-02T19:00:41.045Z,11.29
2018-05-02T19:03:45.133Z,11.24
2018-05-02T19:06:48.470Z,11.20
2018-05-02T19:09:51.852Z,11.13
2018-05-02T19:12:55.254Z,11.04
2018-05-02T19:15:58.678Z,10.96
2018-05-02T19:19:08.415Z,10.85
2018-05-02T19:22:11.819Z,10.76
2018-05-02T19:28:51.987Z,10.60
2018-05-02T19:35:36.143Z,10.52
2018-05-02T19:38:39.553Z,10.52
2018-05-02T19:41:48.511Z,10.52
2018-05-02T19:44:51.829Z,10.51
2018-05-02T19:47:55.935Z,10.44
2018-05-02T19:54:38.758Z,10.24
2018-05-02T19:57:42.148Z,10.20
2018-05-02T20:00:51.126Z,10.21
2018-05-02T20:03:54.464Z,10.18
2018-05-02T20:06:57.833Z,10.17
2018-05-02T20:10:06.619Z,10.16
2018-05-02T20:13:15.604Z,10.14
2018-05-02T20:16:18.930Z,10.13
2018-05-02T20:19:22.334Z,10.15
2018-05-02T20:22:25.675Z,10.19
2018-05-02T20:25:29.851Z,10.32
2018-05-02T20:28:33.217Z,10.41
2018-05-02T20:31:36.563Z,10.50
2018-05-02T20:34:39.980Z,10.58
2018-05-02T20:37:44.076Z,10.71
2018-05-02T20:40:47.394Z,10.80
2018-05-02T20:43:51.573Z,10.83
2018-05-02T20:46:54.976Z,10.83
2018-05-02T20:49:58.365Z,10.91
2018-05-02T20:53:01.769Z,10.94
2018-05-02T20:56:05.174Z,10.91
2018-05-02T20:59:08.505Z,10.96
2018-05-02T21:02:12.620Z,11.00
2018-05-02T21:05:15.994Z,11.00
2018-05-02T21:08:19.309Z,11.00
2018-05-02T21:11:22.618Z,11.04
2018-05-02T21:14:26.881Z,11.05
2018-05-02T21:17:30.163Z,11.12
2018-05-02T21:20:33.471Z,11.13
2018-05-02T21:23:37.065Z,11.16
2018-05-02T21:26:40.511Z,11.23
2018-05-02T21:29:43.909Z,11.24
2018-05-02T21:32:47.236Z,11.22
2018-05-02T21:35:51.553Z,11.20
2018-05-02T21:38:54.955Z,11.26
2018-05-02T21:41:58.329Z,11.22
2018-05-02T21:45:01.756Z,11.21
2018-05-02T21:48:05.126Z,11.22
2018-05-02T21:51:08.495Z,11.24
2018-05-02T21:54:12.097Z,11.24
2018-05-02T21:57:16.983Z,11.24
2018-05-02T22:00:20.317Z,11.26
2018-05-02T22:03:23.783Z,11.25
2018-05-02T22:06:27.145Z,11.23
2018-05-02T22:09:30.714Z,11.23
2018-05-02T22:12:34.057Z,11.19
2018-05-02T22:15:37.636Z,11.13
2018-05-02T22:18:41.258Z,11.09
2018-05-02T22:21:44.577Z,11.05
2018-05-02T22:24:47.932Z,11.13
2018-05-02T22:27:51.566Z,11.06
2018-05-02T22:30:55.070Z,11.01
2018-05-02T22:33:58.446Z,10.97
2018-05-02T22:37:01.809Z,10.97
2018-05-02T22:40:05.189Z,10.98
2018-05-02T22:43:08.529Z,10.95
2018-05-02T22:46:11.945Z,11.00
2018-05-02T22:49:15.385Z,10.93
2018-05-02T22:52:18.724Z,10.91
2018-05-02T22:55:22.874Z,10.86
2018-05-02T22:58:26.226Z,10.86
2018-05-02T23:01:30.323Z,10.84
2018-05-02T23:04:33.672Z,10.81
2018-05-02T23:07:37.004Z,10.75
2018-05-02T23:10:40.409Z,10.75
2018-05-02T23:13:43.796Z,10.75
2018-05-02T23:16:47.107Z,10.74
2018-05-02T23:19:50.424Z,10.78
2018-05-02T23:22:53.749Z,10.76
2018-05-02T23:25:57.941Z,10.73
2018-05-02T23:29:01.278Z,10.68
2018-05-02T23:32:04.614Z,10.66
2018-05-02T23:35:07.945Z,10.66
2018-05-02T23:38:12.059Z,10.70
2018-05-02T23:41:16.207Z,10.73
2018-05-02T23:44:19.567Z,10.70
2018-05-02T23:47:22.950Z,10.69
2018-05-02T23:50:26.261Z,10.68
2018-05-02T23:53:29.595Z,10.68
2018-05-02T23:56:32.991Z,10.65
2018-05-02T23:59:37.080Z,10.65
